• Join FlightAware (Why Join?)
  • Login
  • US Flag 
06:22AM EDT


 

Airport Tracker/Info


-or-


 

Live Flight TrackerFlight Track Log ✈ N549PA ✈ 04-Oct-2013 ✈ KMIA - KVPC

Flight Track Log - Related Links

Times and Time Zones

All times are in EDT time to prevent confusion due to time zone crossing. See the N549PA flight status page for this flight to view local times or setup timezone preferences in your user account.

Time Position Orientation Groundspeed Altitude Reporting Facility
EDT Latitude Longitude Course Direction KTS MPH feet Rate Location/Type
03:27PM 25.8003 -80.2700 82° East 196 226 700  Level Miami Center
03:27PM 25.8056 -80.2286 82° East 220 253 2,000 2,580 Climbing Miami Center
03:28PM 25.8219 -80.1528 76° East 263 303 5,000 2,220 Climbing Miami Center
03:30PM 25.9092 -80.1644 353° North 259 298 7,000 1,440 Climbing Miami Center
03:31PM 25.9728 -80.2169 323° Northwest 326 375 8,300 2,340 Climbing Miami Center
03:31PM 25.9942 -80.2847 289° West 259 298 11,300 3,360 Climbing Miami Center
03:32PM 26.0044 -80.2964 314° West 277 319 11,700 2,400 Climbing Miami Center
03:32PM 26.0256 -80.3711 287° West 303 349 13,800 2,580 Climbing Miami Center
03:33PM 26.0358 -80.3853 309° West 313 360 14,300 1,680 Climbing Miami Center
03:34PM 26.0561 -80.4900 282° West 368 423 15,800 1,860 Climbing Miami Center
03:35PM 26.0806 -80.6017 284° West 374 430 18,100 2,280 Climbing Miami Center
03:36PM 26.1431 -80.6869 309° West 353 406 20,400 1,740 Climbing Miami Center
03:37PM 26.2181 -80.7703 315° West 366 421 21,600 1,920 Climbing Miami Center
03:38PM 26.3017 -80.8497 320° Northwest 388 447 24,300 2,700 Climbing Miami Center
03:39PM 26.3622 -80.9258 312° West 374 430 27,000 1,740 Climbing Miami Center
03:40PM 26.4517 -81.0078 321° Northwest 372 428 27,800 1,200 Climbing Miami Center
03:41PM 26.5481 -81.0714 329° Northwest 392 451 29,400 1,500 Climbing Miami Center
03:42PM 26.6508 -81.1239 335° Northwest 397 457 30,900 1,500 Climbing Miami Center
03:43PM 26.7428 -81.1900 327° Northwest 397 457 32,400 1,320 Climbing Miami Center
03:44PM 26.8289 -81.2444 331° Northwest 397 457 33,600 960 Climbing Miami Center
03:45PM 26.9275 -81.2972 334° Northwest 387 445 34,400 900 Climbing Miami Center
03:46PM 27.0256 -81.3731 325° Northwest 392 451 35,500 900 Climbing Miami Center
03:47PM 27.1217 -81.4353 330° Northwest 392 451 36,200 720 Climbing Miami Center
03:48PM 27.2222 -81.4858 336° Northwest 392 451 37,000 840 Climbing Miami Center
03:49PM 27.3081 -81.5406 330° Northwest 392 451 37,900 720 Climbing Miami Center
03:50PM 27.3978 -81.6075 326° Northwest 386 444 38,500 720 Climbing Miami Center
03:51PM 27.5708 -81.7153 331° Northwest 376 433 40,000 480 Climbing Jacksonville Center
03:52PM 27.6653 -81.7656 335° Northwest 376 433 40,000  Level Jacksonville Center
03:53PM 27.7636 -81.8233 333° Northwest 382 440 40,000  Level Jacksonville Center
03:54PM 27.8622 -81.8856 331° Northwest 394 453 40,000  Level Jacksonville Center
03:55PM 27.9544 -81.9553 326° Northwest 400 460 40,000  Level Jacksonville Center
03:56PM 28.0489 -82.0156 331° Northwest 395 455 40,000  Level Jacksonville Center
03:57PM 28.1558 -82.0850 330° Northwest 395 455 40,000  Level Jacksonville Center
03:58PM 28.2519 -82.1433 332° Northwest 395 455 40,000  Level Jacksonville Center
03:59PM 28.3544 -82.1850 340° North 395 455 40,000  Level Jacksonville Center
04:00PM 28.4592 -82.2339 338° Northwest 395 455 40,000  Level Jacksonville Center
04:01PM 28.5556 -82.2969 330° Northwest 395 455 40,000  Level Jacksonville Center
04:02PM 28.6517 -82.3581 331° Northwest 395 455 40,000  Level Jacksonville Center
04:03PM 28.7394 -82.4025 336° Northwest 395 455 40,000  Level Jacksonville Center
04:04PM 28.8419 -82.4469 339° North 390 449 40,000  Level Jacksonville Center
04:05PM 28.9444 -82.5033 334° Northwest 396 456 40,000  Level Jacksonville Center
04:06PM 29.0428 -82.5672 330° Northwest 401 461 40,000  Level Jacksonville Center
04:07PM 29.1453 -82.6192 336° Northwest 401 461 40,000  Level Jacksonville Center
04:08PM 29.2497 -82.6689 337° Northwest 401 461 40,000  Level Jacksonville Center
04:09PM 29.3478 -82.7306 331° Northwest 401 461 40,000  Level Jacksonville Center
04:10PM 29.4481 -82.7925 332° Northwest 401 461 40,000  Level Jacksonville Center
04:11PM 29.5631 -82.8497 337° Northwest 405 466 40,000  Level Jacksonville Center
04:12PM 29.6714 -82.9044 336° Northwest 410 472 40,000  Level Jacksonville Center
04:13PM 29.7739 -82.9667 332° Northwest 416 479 40,000  Level Jacksonville Center
04:14PM 29.8739 -83.0314 331° Northwest 416 479 40,000  Level Jacksonville Center
04:15PM 29.9803 -83.0867 336° Northwest 411 473 40,000  Level Jacksonville Center
04:16PM 30.0889 -83.1375 338° Northwest 411 473 40,000  Level Jacksonville Center
04:17PM 30.1931 -83.1978 333° Northwest 416 479 40,000  Level Jacksonville Center
04:18PM 30.3014 -83.2486 338° Northwest 422 486 40,000  Level Jacksonville Center
04:19PM 30.4164 -83.2781 348° North 416 479 40,000  Level Jacksonville Center
04:20PM 30.5308 -83.3194 343° North 422 486 40,000  Level Jacksonville Center
04:21PM 30.6394 -83.3778 335° Northwest 422 486 40,000  Level Jacksonville Center
04:22PM 30.7519 -83.4219 341° North 422 486 40,000  Level Jacksonville Center
04:23PM 30.8583 -83.4636 341° North 423 487 40,000  Level Jacksonville Center
04:24PM 30.9708 -83.5178 338° Northwest 423 487 40,000  Level Jacksonville Center
04:26PM 31.1553 -83.5875 342° North 432 497 40,000  Level Atlanta Center
04:27PM 31.2700 -83.6308 342° North 432 497 40,000  Level Atlanta Center
04:28PM 31.3622 -83.7156 322° Northwest 417 480 40,000 -420 Level Atlanta Center
04:29PM 31.4564 -83.8003 323° Northwest 422 486 39,200 -960 Descending Atlanta Center
04:30PM 31.5586 -83.8756 328° Northwest 432 497 38,100 -1,680 Descending Atlanta Center
04:31PM 31.6736 -83.9681 326° Northwest 439 505 35,900 -1,800 Descending Atlanta Center
04:32PM 31.7611 -84.0633 317° Northwest 446 513 34,500 -1,500 Descending Atlanta Center
04:33PM 31.8572 -84.1514 322° Northwest 441 507 32,900 -1,500 Descending Atlanta Center
04:34PM 31.9572 -84.2200 330° Northwest 431 496 31,500 -1,800 Descending Atlanta Center
04:35PM 32.0553 -84.3058 323° Northwest 426 490 29,300 -2,220 Descending Atlanta Center
04:36PM 32.1447 -84.4019 318° Northwest 431 496 27,100 -1,920 Descending Atlanta Center
04:38PM 32.3300 -84.5525 326° Northwest 413 475 23,600 -1,740 Descending Atlanta Center
04:39PM 32.4153 -84.6342 321° Northwest 406 467 21,900 -1,560 Descending Atlanta Center
04:40PM 32.4961 -84.7186 319° Northwest 390 449 20,500 -1,560 Descending Atlanta Center
04:41PM 32.5814 -84.7883 325° Northwest 384 442 18,800 -1,260 Descending Atlanta Center
04:42PM 32.6542 -84.8283 335° Northwest 368 423 18,000 -2,340 Descending Atlanta Center
04:43PM 32.7625 -84.8714 342° North 347 399 14,200 -3,300 Descending Atlanta Center
04:44PM 32.8433 -84.9239 331° Northwest 347 399 11,500 -1,680 Descending Atlanta Center
04:45PM 32.9206 -84.9569 340° North 304 350 10,900 -300 Descending Atlanta Center
04:46PM 32.9850 -84.9922 335° Northwest 294 338 10,900  Level Atlanta Center
04:47PM 33.0617 -85.0328 336° Northwest 294 338 11,000  Climbing Atlanta Center
04:48PM 33.1367 -85.0658 340° North 287 330 11,000  Level Atlanta Center
04:49PM 33.2053 -85.1064 334° Northwest 270 311 11,000  Level Atlanta Center
04:50PM 33.2761 -85.1272 346° North 270 311 11,000 -600 Level Atlanta Center
04:51PM 33.3639 -85.1108 North 275 316 9,800 -1,260 Descending Atlanta Center
04:52PM 33.4453 -85.0969 North 287 330 8,500 -1,380 Descending Atlanta Center
04:53PM 33.5289 -85.0906 North 293 337 7,100 -1,260 Descending Atlanta Center
04:54PM 33.6061 -85.0864 North 288 331 6,000 -1,080 Descending Atlanta Center
04:55PM 33.6833 -85.0772 North 281 323 5,000 -600 Descending Atlanta Center
04:58PM 33.8500 -85.0167 17° North 262 302 4,000 -420 Descending Atlanta TRACON
04:59PM 33.9167 -84.9667 32° Northeast 267 307 3,700 -300 Descending Atlanta TRACON